• Join FlightAware (Why Join?)
  • Login
  • US Flag 
08:14PM EST


 

Airport Tracker/Info


-or-


 

Live Flight TrackerFlight Track Log ✈ EGF3755 ✈ 03-May-2013 ✈ KORD - KSLC

Flight Track Log - Related Links

Times and Time Zones

All times are in EDT time to prevent confusion due to time zone crossing. See the EGF3755 flight status page for this flight to view local times or setup timezone preferences in your user account.

Time Position Orientation Groundspeed Altitude Reporting Facility
EDT Latitude Longitude Course Direction KTS MPH feet Rate Location/Type
05:17PM 42.0500 -87.9333 261° West 245 282 3,400  Level Chicago TRACON
05:18PM 41.9300 -88.3499 255° West  Level FlightAware Approximate
05:18PM 42.1167 -88.0000 323° Northwest 297 342 5,100  Level Chicago TRACON
05:18PM 42.1406 -88.0497 303° West 290 334 6,600 2,640 Climbing Chicago Center
05:19PM 41.9127 -88.5003 261° West  Level FlightAware Approximate
05:19PM 42.1461 -88.1503 274° West 296 341 9,400  Level Chicago Center
05:20PM 41.8950 -88.6516 261° West  Level FlightAware Approximate
05:20PM 42.1189 -88.2486 250° West 287 330 11,200  Level Chicago Center
05:21PM 41.8773 -88.8029 261° West  Level FlightAware Approximate
05:21PM 42.0694 -88.3581 239° Southwest 336 387 12,200  Level Chicago Center
05:22PM 41.8599 -88.9550 261° West  Level FlightAware Approximate
05:22PM 42.0028 -88.5033 238° Southwest 376 433 14,100  Level Chicago Center
05:23PM 41.9450 -88.6331 239° Southwest 401 461 16,200 1,860 Climbing Chicago Center
05:24PM 41.9133 -88.7744 253° West 400 460 18,000 1,740 Climbing Chicago Center
05:26PM 41.8800 -88.9200 253° West 411 473 19,800 1,260 Climbing Chicago Center
05:27PM 41.8433 -89.0681 252° West 419 482 20,700 960 Climbing Chicago Center
05:28PM 41.7986 -89.2561 252° West 445 512 21,900 1,200 Climbing Chicago Center
05:29PM 41.7594 -89.4178 252° West 458 527 23,200 1,080 Climbing Chicago Center
05:30PM 41.7269 -89.5619 253° West 456 525 24,200 1,020 Climbing Chicago Center
05:31PM 41.6811 -89.7586 253° West 463 533 25,400 1,020 Climbing Chicago Center
05:32PM 41.6444 -89.9264 254° West 470 541 26,400 960 Climbing Chicago Center
05:33PM 41.6300 -90.1000 264° West 485 558 27,400 1,080 Climbing Chicago Center
05:34PM 41.6303 -90.2750 270° West 477 549 28,700 1,200 Climbing Chicago Center
05:35PM 41.6256 -90.4531 268° West 478 550 30,000 1,200 Climbing Chicago Center
05:36PM 41.6239 -90.6378 269° West 467 537 31,200 960 Climbing Chicago Center
05:37PM 41.6211 -90.8092 269° West 464 534 32,100 840 Climbing Chicago Center
05:38PM 41.6178 -91.0175 269° West 468 539 33,000 780 Climbing Chicago Center
05:39PM 41.6153 -91.1900 269° West 468 539 33,800 720 Climbing Chicago Center
05:40PM 41.6122 -91.3644 269° West 471 542 34,600 720 Climbing Chicago Center
05:41PM 41.6086 -91.5369 268° West 467 537 35,400 660 Climbing Chicago Center
05:42PM 41.6053 -91.7103 269° West 467 537 36,000 240 Climbing Chicago Center
05:43PM 41.6011 -91.8864 268° West 473 544 36,000 240 Level Chicago Center
05:44PM 41.5953 -92.1028 268° West 485 558 36,500 720 Climbing Chicago Center
05:45PM 41.5914 -92.2817 268° West 485 558 37,500 720 Climbing Chicago Center
05:46PM 41.5872 -92.4547 268° West 472 543 38,000 240 Climbing Chicago Center
05:47PM 41.5806 -92.6281 267° West 470 541 38,000  Level Chicago Center
05:48PM 41.5758 -92.7875 268° West 471 542 38,000  Level Minneapolis Center
05:49PM 41.5708 -92.9608 268° West 471 542 38,000  Level Minneapolis Center
05:50PM 41.5644 -93.1336 267° West 471 542 38,000  Level Minneapolis Center
05:51PM 41.5592 -93.3053 268° West 469 540 38,000  Level Minneapolis Center
05:52PM 41.5500 -93.5136 267° West 471 542 38,000  Level Minneapolis Center
05:53PM 41.5453 -93.6817 268° West 464 534 38,000  Level Minneapolis Center
05:54PM 41.5383 -93.8547 267° West 469 540 38,000  Level Minneapolis Center
05:55PM 41.5308 -94.0269 267° West 470 541 38,000  Level Minneapolis Center
05:56PM 41.5236 -94.2011 267° West 473 544 38,000  Level Minneapolis Center
05:57PM 41.5136 -94.3917 266° West 469 540 38,000  Level Minneapolis Center
05:58PM 41.5078 -94.5642 267° West 464 534 38,000  Level Minneapolis Center
05:59PM 41.5000 -94.7381 267° West 469 540 38,000  Level Minneapolis Center
06:00PM 41.4906 -94.9117 266° West 470 541 38,000  Level Minneapolis Center
06:02PM 41.4794 -95.1200 266° West 470 541 38,000  Level Minneapolis Center
06:03PM 41.4678 -95.3261 266° West 467 537 38,000  Level Minneapolis Center
06:04PM 41.4583 -95.4978 266° West 466 536 38,000  Level Minneapolis Center
06:05PM 41.4478 -95.6886 266° West 470 541 38,000  Level Minneapolis Center
06:06PM 41.4386 -95.8603 266° West 466 536 38,000  Level Minneapolis Center
06:07PM 41.4283 -96.0325 266° West 467 537 38,000  Level Minneapolis Center
06:08PM 41.4181 -96.2056 266° West 468 539 38,000  Level Minneapolis Center
06:09PM 41.4072 -96.3797 265° West 466 536 38,000  Level Minneapolis Center
06:10PM 41.3964 -96.5511 265° West 467 537 38,000  Level Minneapolis Center
06:11PM 41.3850 -96.7236 265° West 466 536 38,000  Level Minneapolis Center
06:12PM 41.3725 -96.8967 265° West 469 540 38,000  Level Minneapolis Center
06:13PM 41.3581 -97.1050 265° West 471 542 38,000  Level Minneapolis Center
06:14PM 41.3464 -97.2803 265° West 473 544 38,000  Level Minneapolis Center
06:15PM 41.3342 -97.4550 265° West 475 547 38,000  Level Minneapolis Center
06:16PM 41.3206 -97.6308 264° West 477 549 38,000  Level Minneapolis Center
06:17PM 41.3078 -97.8061 265° West 477 549 38,000  Level Minneapolis Center
06:18PM 41.2944 -97.9811 264° West 476 548 38,000  Level Minneapolis Center
06:19PM 41.2808 -98.1536 264° West 474 545 38,000  Level Minneapolis Center
06:20PM 41.2647 -98.3589 264° West 470 541 38,000  Level Minneapolis Center
06:21PM 41.2514 -98.5300 264° West 467 537 38,000  Level Minneapolis Center
06:22PM 41.2378 -98.7011 264° West 466 536 38,000  Level Minneapolis Center
06:23PM 41.2231 -98.8722 264° West 466 536 38,000  Level Minneapolis Center
06:24PM 41.2183 -98.9236 263° West 466 536 38,000  Level Denver Center
06:25PM 41.2003 -99.1347 264° West 469 540 38,000  Level Denver Center
06:26PM 41.1847 -99.3064 263° West 470 541 38,000  Level Denver Center
06:27PM 41.1675 -99.5022 263° West 473 544 38,000  Level Denver Center
06:28PM 41.1519 -99.6669 263° West 472 543 38,000  Level Denver Center
06:29PM 41.1342 -99.8594 263° West 471 542 38,000  Level Denver Center
06:30PM 41.1189 -100.0233 263° West 470 541 38,000  Level Denver Center
06:31PM 41.1003 -100.2136 263° West 469 540 38,000  Level Denver Center
06:32PM 41.0847 -100.3772 263° West 469 540 38,000  Level Denver Center
06:33PM 41.0661 -100.5664 263° West 467 537 38,000  Level Denver Center
06:34PM 41.0506 -100.7269 263° West 466 536 38,000  Level Denver Center
06:35PM 41.0300 -100.9125 262° West 463 533 38,000  Level Denver Center
06:36PM 41.0131 -101.0711 262° West 461 531 38,000  Level Denver Center
06:37PM 40.9939 -101.2586 262° West 462 532 38,000  Level Denver Center
06:38PM 40.9764 -101.4189 262° West 463 533 38,000  Level Denver Center
06:39PM 40.9556 -101.6069 262° West 464 534 38,000  Level Denver Center
06:40PM 40.9369 -101.7672 261° West 463 533 38,000  Level Denver Center
06:41PM 40.9156 -101.9525 261° West 459 528 38,000  Level Denver Center
06:42PM 40.8972 -102.1086 261° West 451 519 38,000  Level Denver Center
06:43PM 40.8767 -102.2864 261° West 441 507 38,000  Level Denver Center
06:44PM 40.8575 -102.4403 261° West 443 510 38,000  Level Denver Center
06:45PM 40.8356 -102.6192 261° West 445 512 38,000  Level Denver Center
06:47PM 40.8189 -102.7733 262° West 445 512 38,000  Level Denver Center
06:48PM 40.7947 -102.9539 260° West 447 514 38,000  Level Denver Center
06:49PM 40.7769 -103.1072 261° West 451 519 38,000  Level Denver Center
06:50PM 40.7561 -103.2692 260° West 445 512 38,000  Level Denver Center
06:51PM 40.7358 -103.4269 260° West 435 501 38,000  Level Denver Center
06:52PM 40.7128 -103.6111 261° West 435 501 38,000  Level Denver Center
06:53PM 40.6917 -103.7672 260° West 432 497 38,000  Level Denver Center
06:54PM 40.6725 -103.9236 261° West 431 496 38,000  Level Denver Center
06:55PM 40.6506 -104.0800 260° West 433 498 38,000  Level Denver Center
06:56PM 40.6306 -104.2358 260° West 428 493 38,000  Level Denver Center
06:57PM 40.6100 -104.3856 260° West 417 480 38,000  Level Denver Center
06:58PM 40.5900 -104.5328 260° West 409 471 38,000  Level Denver Center
06:59PM 40.5692 -104.6800 259° West 408 470 38,000  Level Denver Center
07:00PM 40.5453 -104.8497 260° West 403 464 38,000  Level Denver Center
07:02PM 40.5039 -105.1406 259° West 403 464 38,000  Level Denver Center
07:03PM 40.4819 -105.2869 259° West 405 466 38,000  Level Denver Center
07:04PM 40.4600 -105.4369 259° West 412 474 38,000  Level Denver Center
07:05PM 40.4389 -105.5814 259° West 404 465 38,000  Level Denver Center
07:06PM 40.4139 -105.7547 259° West 410 472 38,000  Level Denver Center
07:07PM 40.3917 -105.9022 259° West 410 472 38,000  Level Denver Center
07:08PM 40.3686 -106.0517 259° West 414 476 38,000  Level Denver Center
07:09PM 40.3458 -106.2003 259° West 413 475 38,000  Level Denver Center
07:10PM 40.3244 -106.3414 259° West 414 476 38,000  Level Denver Center
07:11PM 40.2978 -106.5053 258° West 413 475 38,000  Level Denver Center
07:12PM 40.2767 -106.6397 258° West 412 474 38,000  Level Denver Center
07:13PM 40.2544 -106.7850 259° West 409 471 38,000  Level Denver Center
07:14PM 40.2292 -106.9453 258° West 405 466 38,000  Level Denver Center
07:15PM 40.2031 -107.1053 258° West 404 465 38,000  Level Denver Center
07:16PM 40.1800 -107.2431 258° West 405 466 38,000  Level Denver Center
07:17PM 40.1547 -107.4036 258° West 406 467 38,000  Level Denver Center
07:19PM 40.1322 -107.5408 258° West 404 465 38,000  Level Denver Center
07:20PM 40.1014 -107.7231 258° West 404 465 38,000  Level Denver Center
07:21PM 40.0778 -107.8600 257° West 404 465 38,000  Level Denver Center
07:22PM 40.0731 -108.0203 268° West 399 459 38,000  Level Denver Center
07:23PM 40.0778 -108.1572 273° West 398 458 38,000  Level Denver Center
07:24PM 40.0856 -108.3183 274° West 398 458 38,000  Level Denver Center
07:25PM 40.0911 -108.4567 273° West 400 460 38,000  Level Denver Center
07:26PM 40.0972 -108.6167 273° West 399 459 38,000  Level Denver Center
07:27PM 40.1022 -108.7542 273° West 398 458 38,000  Level Denver Center
07:28PM 40.1092 -108.9139 273° West 398 458 38,000  Level Denver Center
07:29PM 40.1136 -109.0286 273° West 399 459 38,000  Level Salt Lake Center
07:30PM 40.1181 -109.1656 272° West 397 457 38,000  Level Salt Lake Center
07:30PM 40.1194 -109.2119 272° West 400 460 38,000  Level Denver Center
07:31PM 40.1242 -109.3467 273° West 391 450 38,000  Level Denver Center
07:32PM 40.1286 -109.4569 273° West 385 443 38,000  Level Salt Lake Center
07:33PM 40.1325 -109.5872 272° West 379 436 38,000 -540 Level Salt Lake Center
07:34PM 40.1372 -109.7411 272° West 380 437 36,900 -1,020 Descending Salt Lake Center
07:35PM 40.1419 -109.8764 273° West 387 445 35,900 -1,020 Descending Salt Lake Center
07:36PM 40.1458 -110.0331 272° West 387 445 34,800 -1,140 Descending Salt Lake Center
07:37PM 40.1494 -110.1658 272° West 383 441 33,600 -1,440 Descending Salt Lake Center
07:38PM 40.1469 -110.3203 269° West 381 438 31,900 -1,620 Descending Salt Lake Center
07:39PM 40.1464 -110.4486 270° West 372 428 30,300 -1,860 Descending Salt Lake Center
07:40PM 40.1450 -110.5981 269° West 369 425 28,200 -2,040 Descending Salt Lake Center
07:41PM 40.1433 -110.7264 269° West 371 427 26,200 -1,920 Descending Salt Lake Center
07:42PM 40.1411 -110.8458 269° West 349 402 24,300 -1,980 Descending Salt Lake Center
07:43PM 40.1400 -110.9917 269° West 349 402 22,200 -1,800 Descending Salt Lake Center
07:44PM 40.1381 -111.1197 269° West 352 405 20,700 -1,500 Descending Salt Lake Center
07:45PM 40.1367 -111.2450 269° West 347 399 19,200 -1,500 Descending Salt Lake Center
07:46PM 40.1350 -111.3750 269° West 354 407 17,700 -1,440 Descending Salt Lake Center
07:47PM 40.1319 -111.5061 268° West 359 413 16,300 -900 Descending Salt Lake Center
07:48PM 40.1597 -111.6414 285° West 348 400 16,000 -240 Descending Salt Lake Center
07:49PM 40.2178 -111.7325 310° West 357 411 15,900 -840 Descending Salt Lake Center
07:50PM 40.3008 -111.8397 315° West 350 403 14,300 -1,800 Descending Salt Lake Center
07:52PM 40.3811 -111.9289 320° Northwest 341 392 12,100 -1,920 Descending Salt Lake Center
07:52PM 40.4642 -111.9536 347° North 333 383 10,400 -1,140 Descending Salt Lake Center
07:53PM 40.5433 -111.9714 350° North 292 336 9,900 -960 Descending Salt Lake Center
07:55PM 40.6067 -111.9750 358° North 234 269 8,500 -1,380 Descending Salt Lake Center